sensor_id;sensor_type;location;lat;lon;timestamp;P1;durP1;ratioP1;P2;durP2;ratioP2
7021;SDS011;3552;42.664;23.406;2022-10-16T00:01:26;7.93;;;5.43;;
7021;SDS011;3552;42.664;23.406;2022-10-16T00:03:55;7.63;;;5.43;;
7021;SDS011;3552;42.664;23.406;2022-10-16T00:06:23;9.30;;;5.20;;
7021;SDS011;3552;42.664;23.406;2022-10-16T00:08:54;7.43;;;5.37;;
7021;SDS011;3552;42.664;23.406;2022-10-16T00:11:24;8.63;;;5.37;;
7021;SDS011;3552;42.664;23.406;2022-10-16T00:13:55;10.43;;;5.57;;
7021;SDS011;3552;42.664;23.406;2022-10-16T00:16:23;8.70;;;6.13;;
7021;SDS011;3552;42.664;23.406;2022-10-16T00:18:50;7.87;;;5.33;;
7021;SDS011;3552;42.664;23.406;2022-10-16T00:21:19;8.80;;;5.73;;
7021;SDS011;3552;42.664;23.406;2022-10-16T00:23:50;8.13;;;5.33;;
7021;SDS011;3552;42.664;23.406;2022-10-16T00:26:19;8.17;;;5.70;;
7021;SDS011;3552;42.664;23.406;2022-10-16T00:28:46;6.97;;;5.10;;
7021;SDS011;3552;42.664;23.406;2022-10-16T00:31:14;9.67;;;5.53;;
7021;SDS011;3552;42.664;23.406;2022-10-16T00:33:41;8.70;;;5.17;;
7021;SDS011;3552;42.664;23.406;2022-10-16T00:36:10;9.00;;;5.77;;
7021;SDS011;3552;42.664;23.406;2022-10-16T00:38:39;12.87;;;7.73;;
7021;SDS011;3552;42.664;23.406;2022-10-16T00:41:07;10.87;;;7.30;;
7021;SDS011;3552;42.664;23.406;2022-10-16T00:43:40;13.07;;;7.83;;
7021;SDS011;3552;42.664;23.406;2022-10-16T00:46:17;12.00;;;7.47;;
7021;SDS011;3552;42.664;23.406;2022-10-16T00:48:48;15.97;;;10.13;;
7021;SDS011;3552;42.664;23.406;2022-10-16T00:51:21;22.17;;;10.03;;
7021;SDS011;3552;42.664;23.406;2022-10-16T00:53:51;20.47;;;11.90;;
7021;SDS011;3552;42.664;23.406;2022-10-16T00:56:18;21.70;;;12.23;;
7021;SDS011;3552;42.664;23.406;2022-10-16T00:58:47;20.97;;;11.60;;
7021;SDS011;3552;42.664;23.406;2022-10-16T01:01:14;22.60;;;12.47;;
7021;SDS011;3552;42.664;23.406;2022-10-16T01:03:41;19.10;;;11.93;;
7021;SDS011;3552;42.664;23.406;2022-10-16T01:09:02;21.03;;;11.73;;
7021;SDS011;3552;42.664;23.406;2022-10-16T01:11:38;15.27;;;10.33;;
7021;SDS011;3552;42.664;23.406;2022-10-16T01:14:15;17.73;;;11.23;;
7021;SDS011;3552;42.664;23.406;2022-10-16T01:16:49;16.43;;;10.40;;
7021;SDS011;3552;42.664;23.406;2022-10-16T01:19:26;23.47;;;10.73;;
7021;SDS011;3552;42.664;23.406;2022-10-16T01:22:03;20.53;;;11.17;;
7021;SDS011;3552;42.664;23.406;2022-10-16T01:24:37;20.57;;;10.50;;
7021;SDS011;3552;42.664;23.406;2022-10-16T01:27:11;22.33;;;11.17;;
7021;SDS011;3552;42.664;23.406;2022-10-16T01:29:49;18.73;;;11.43;;
7021;SDS011;3552;42.664;23.406;2022-10-16T01:32:21;18.67;;;11.40;;
7021;SDS011;3552;42.664;23.406;2022-10-16T01:34:58;12.97;;;6.63;;
7021;SDS011;3552;42.664;23.406;2022-10-16T01:37:32;7.00;;;5.60;;
7021;SDS011;3552;42.664;23.406;2022-10-16T01:40:03;9.10;;;5.60;;
7021;SDS011;3552;42.664;23.406;2022-10-16T01:42:37;16.90;;;8.67;;
7021;SDS011;3552;42.664;23.406;2022-10-16T01:45:08;12.40;;;6.70;;
7021;SDS011;3552;42.664;23.406;2022-10-16T01:47:38;12.83;;;6.77;;
7021;SDS011;3552;42.664;23.406;2022-10-16T01:50:07;13.87;;;7.20;;
7021;SDS011;3552;42.664;23.406;2022-10-16T01:52:35;15.53;;;7.63;;
7021;SDS011;3552;42.664;23.406;2022-10-16T01:55:08;13.70;;;7.80;;
7021;SDS011;3552;42.664;23.406;2022-10-16T01:57:41;10.13;;;7.17;;
7021;SDS011;3552;42.664;23.406;2022-10-16T02:00:13;11.10;;;7.47;;
7021;SDS011;3552;42.664;23.406;2022-10-16T02:02:44;13.37;;;7.40;;
7021;SDS011;3552;42.664;23.406;2022-10-16T02:05:16;15.37;;;7.90;;
7021;SDS011;3552;42.664;23.406;2022-10-16T02:07:48;16.70;;;7.53;;
7021;SDS011;3552;42.664;23.406;2022-10-16T02:10:16;12.20;;;7.80;;
7021;SDS011;3552;42.664;23.406;2022-10-16T02:12:46;13.20;;;7.10;;
7021;SDS011;3552;42.664;23.406;2022-10-16T02:15:17;10.00;;;6.93;;
7021;SDS011;3552;42.664;23.406;2022-10-16T02:17:45;11.63;;;6.27;;
7021;SDS011;3552;42.664;23.406;2022-10-16T02:20:12;14.20;;;6.63;;
7021;SDS011;3552;42.664;23.406;2022-10-16T02:22:40;9.07;;;6.73;;
7021;SDS011;3552;42.664;23.406;2022-10-16T02:25:13;12.03;;;6.87;;
7021;SDS011;3552;42.664;23.406;2022-10-16T02:27:45;14.93;;;7.63;;
7021;SDS011;3552;42.664;23.406;2022-10-16T02:30:20;17.57;;;8.93;;
7021;SDS011;3552;42.664;23.406;2022-10-16T02:32:51;14.37;;;8.53;;
7021;SDS011;3552;42.664;23.406;2022-10-16T02:35:20;21.27;;;9.23;;
7021;SDS011;3552;42.664;23.406;2022-10-16T02:37:49;17.50;;;8.63;;
7021;SDS011;3552;42.664;23.406;2022-10-16T02:40:18;16.73;;;9.30;;
7021;SDS011;3552;42.664;23.406;2022-10-16T02:42:49;18.07;;;11.03;;
7021;SDS011;3552;42.664;23.406;2022-10-16T02:45:19;15.10;;;9.00;;
7021;SDS011;3552;42.664;23.406;2022-10-16T02:47:47;15.17;;;8.93;;
7021;SDS011;3552;42.664;23.406;2022-10-16T02:50:14;16.87;;;9.33;;
7021;SDS011;3552;42.664;23.406;2022-10-16T02:52:42;24.37;;;8.90;;
7021;SDS011;3552;42.664;23.406;2022-10-16T02:55:09;16.27;;;8.57;;
7021;SDS011;3552;42.664;23.406;2022-10-16T02:57:36;15.90;;;8.30;;
7021;SDS011;3552;42.664;23.406;2022-10-16T03:00:07;18.63;;;8.20;;
7021;SDS011;3552;42.664;23.406;2022-10-16T03:02:37;15.50;;;8.23;;
7021;SDS011;3552;42.664;23.406;2022-10-16T03:05:05;16.77;;;7.93;;
7021;SDS011;3552;42.664;23.406;2022-10-16T03:07:33;20.33;;;9.00;;
7021;SDS011;3552;42.664;23.406;2022-10-16T03:09:59;15.27;;;8.57;;
7021;SDS011;3552;42.664;23.406;2022-10-16T03:12:26;14.00;;;8.83;;
7021;SDS011;3552;42.664;23.406;2022-10-16T03:14:53;14.77;;;10.40;;
7021;SDS011;3552;42.664;23.406;2022-10-16T03:17:23;19.07;;;9.80;;
7021;SDS011;3552;42.664;23.406;2022-10-16T03:19:50;17.27;;;9.43;;
7021;SDS011;3552;42.664;23.406;2022-10-16T03:22:17;17.63;;;8.87;;
7021;SDS011;3552;42.664;23.406;2022-10-16T03:24:44;15.63;;;8.53;;
7021;SDS011;3552;42.664;23.406;2022-10-16T03:27:11;16.83;;;8.73;;
7021;SDS011;3552;42.664;23.406;2022-10-16T03:29:38;14.10;;;8.83;;
7021;SDS011;3552;42.664;23.406;2022-10-16T03:32:05;15.43;;;8.53;;
7021;SDS011;3552;42.664;23.406;2022-10-16T03:34:34;14.57;;;9.10;;
7021;SDS011;3552;42.664;23.406;2022-10-16T03:37:00;16.47;;;8.70;;
7021;SDS011;3552;42.664;23.406;2022-10-16T03:39:29;18.70;;;9.60;;
7021;SDS011;3552;42.664;23.406;2022-10-16T03:41:56;17.40;;;8.97;;
7021;SDS011;3552;42.664;23.406;2022-10-16T03:44:22;19.70;;;8.93;;
7021;SDS011;3552;42.664;23.406;2022-10-16T03:46:49;20.43;;;9.17;;
7021;SDS011;3552;42.664;23.406;2022-10-16T03:49:16;11.57;;;8.17;;
7021;SDS011;3552;42.664;23.406;2022-10-16T03:51:45;12.47;;;9.07;;
7021;SDS011;3552;42.664;23.406;2022-10-16T03:54:11;13.70;;;8.50;;
7021;SDS011;3552;42.664;23.406;2022-10-16T03:56:38;15.60;;;8.33;;
7021;SDS011;3552;42.664;23.406;2022-10-16T03:59:06;15.70;;;8.50;;
7021;SDS011;3552;42.664;23.406;2022-10-16T04:01:33;11.37;;;7.20;;
7021;SDS011;3552;42.664;23.406;2022-10-16T04:04:02;12.60;;;7.33;;
7021;SDS011;3552;42.664;23.406;2022-10-16T04:06:29;22.37;;;8.43;;
7021;SDS011;3552;42.664;23.406;2022-10-16T04:08:57;19.33;;;7.80;;
7021;SDS011;3552;42.664;23.406;2022-10-16T04:11:24;11.40;;;6.67;;
7021;SDS011;3552;42.664;23.406;2022-10-16T04:13:52;19.10;;;8.57;;
7021;SDS011;3552;42.664;23.406;2022-10-16T04:16:20;13.30;;;6.80;;
7021;SDS011;3552;42.664;23.406;2022-10-16T04:18:47;11.17;;;6.97;;
7021;SDS011;3552;42.664;23.406;2022-10-16T04:21:14;12.53;;;7.33;;
7021;SDS011;3552;42.664;23.406;2022-10-16T04:23:41;12.47;;;7.73;;
7021;SDS011;3552;42.664;23.406;2022-10-16T04:26:09;14.27;;;7.13;;
7021;SDS011;3552;42.664;23.406;2022-10-16T04:28:37;10.97;;;7.33;;
7021;SDS011;3552;42.664;23.406;2022-10-16T04:31:05;13.03;;;6.97;;
7021;SDS011;3552;42.664;23.406;2022-10-16T04:33:32;18.73;;;8.03;;
7021;SDS011;3552;42.664;23.406;2022-10-16T04:36:01;12.03;;;7.97;;
7021;SDS011;3552;42.664;23.406;2022-10-16T04:38:29;13.63;;;7.83;;
7021;SDS011;3552;42.664;23.406;2022-10-16T04:40:57;24.67;;;9.73;;
7021;SDS011;3552;42.664;23.406;2022-10-16T04:43:26;15.87;;;8.30;;
7021;SDS011;3552;42.664;23.406;2022-10-16T04:45:53;11.93;;;7.83;;
7021;SDS011;3552;42.664;23.406;2022-10-16T04:48:21;20.60;;;9.10;;
7021;SDS011;3552;42.664;23.406;2022-10-16T04:50:49;14.50;;;7.80;;
7021;SDS011;3552;42.664;23.406;2022-10-16T04:53:17;14.17;;;8.30;;
7021;SDS011;3552;42.664;23.406;2022-10-16T04:55:44;11.53;;;7.73;;
7021;SDS011;3552;42.664;23.406;2022-10-16T04:58:11;10.93;;;7.47;;
7021;SDS011;3552;42.664;23.406;2022-10-16T05:00:40;12.50;;;8.80;;
7021;SDS011;3552;42.664;23.406;2022-10-16T05:03:07;12.53;;;7.93;;
7021;SDS011;3552;42.664;23.406;2022-10-16T05:05:34;11.23;;;7.70;;
7021;SDS011;3552;42.664;23.406;2022-10-16T05:08:01;15.23;;;8.30;;
7021;SDS011;3552;42.664;23.406;2022-10-16T05:10:29;17.73;;;9.20;;
7021;SDS011;3552;42.664;23.406;2022-10-16T05:12:56;13.53;;;7.87;;
7021;SDS011;3552;42.664;23.406;2022-10-16T05:15:24;13.23;;;8.03;;
7021;SDS011;3552;42.664;23.406;2022-10-16T05:17:53;14.07;;;7.17;;
7021;SDS011;3552;42.664;23.406;2022-10-16T05:20:20;11.90;;;7.30;;
7021;SDS011;3552;42.664;23.406;2022-10-16T05:22:49;19.23;;;7.77;;
7021;SDS011;3552;42.664;23.406;2022-10-16T05:25:16;11.80;;;6.97;;
7021;SDS011;3552;42.664;23.406;2022-10-16T05:27:43;12.80;;;7.23;;
7021;SDS011;3552;42.664;23.406;2022-10-16T05:30:13;14.17;;;7.57;;
7021;SDS011;3552;42.664;23.406;2022-10-16T05:32:39;12.97;;;7.17;;
7021;SDS011;3552;42.664;23.406;2022-10-16T05:35:08;13.47;;;6.97;;
7021;SDS011;3552;42.664;23.406;2022-10-16T05:37:35;14.67;;;6.40;;
7021;SDS011;3552;42.664;23.406;2022-10-16T05:40:02;16.90;;;6.47;;
7021;SDS011;3552;42.664;23.406;2022-10-16T05:42:30;12.30;;;6.33;;
7021;SDS011;3552;42.664;23.406;2022-10-16T05:44:57;9.40;;;5.90;;
7021;SDS011;3552;42.664;23.406;2022-10-16T05:47:24;12.33;;;6.13;;
7021;SDS011;3552;42.664;23.406;2022-10-16T05:49:51;15.40;;;6.80;;
7021;SDS011;3552;42.664;23.406;2022-10-16T05:52:19;17.00;;;7.40;;
7021;SDS011;3552;42.664;23.406;2022-10-16T05:54:46;15.77;;;7.73;;
7021;SDS011;3552;42.664;23.406;2022-10-16T05:57:13;11.77;;;7.00;;
7021;SDS011;3552;42.664;23.406;2022-10-16T05:59:40;10.27;;;7.37;;
7021;SDS011;3552;42.664;23.406;2022-10-16T06:02:08;11.77;;;7.60;;
7021;SDS011;3552;42.664;23.406;2022-10-16T06:04:39;13.97;;;6.83;;
7021;SDS011;3552;42.664;23.406;2022-10-16T06:07:06;9.73;;;7.10;;
7021;SDS011;3552;42.664;23.406;2022-10-16T06:09:34;11.97;;;7.10;;
7021;SDS011;3552;42.664;23.406;2022-10-16T06:12:02;14.80;;;7.50;;
7021;SDS011;3552;42.664;23.406;2022-10-16T06:14:29;11.07;;;7.53;;
7021;SDS011;3552;42.664;23.406;2022-10-16T06:16:57;9.00;;;7.23;;
7021;SDS011;3552;42.664;23.406;2022-10-16T06:19:24;15.73;;;7.20;;
7021;SDS011;3552;42.664;23.406;2022-10-16T06:21:51;11.87;;;6.70;;
7021;SDS011;3552;42.664;23.406;2022-10-16T06:24:17;12.30;;;7.43;;
7021;SDS011;3552;42.664;23.406;2022-10-16T06:26:46;14.77;;;7.47;;
7021;SDS011;3552;42.664;23.406;2022-10-16T06:29:13;15.43;;;7.27;;
7021;SDS011;3552;42.664;23.406;2022-10-16T06:31:40;11.80;;;7.13;;
7021;SDS011;3552;42.664;23.406;2022-10-16T06:34:09;14.57;;;7.33;;
7021;SDS011;3552;42.664;23.406;2022-10-16T06:36:36;12.20;;;7.77;;
7021;SDS011;3552;42.664;23.406;2022-10-16T06:39:04;17.67;;;7.80;;
7021;SDS011;3552;42.664;23.406;2022-10-16T06:41:32;14.03;;;6.90;;
7021;SDS011;3552;42.664;23.406;2022-10-16T06:44:01;12.63;;;6.60;;
7021;SDS011;3552;42.664;23.406;2022-10-16T06:46:31;11.77;;;6.17;;
7021;SDS011;3552;42.664;23.406;2022-10-16T06:48:59;13.57;;;6.40;;
7021;SDS011;3552;42.664;23.406;2022-10-16T06:51:26;11.47;;;7.07;;
7021;SDS011;3552;42.664;23.406;2022-10-16T06:53:54;20.67;;;8.70;;
7021;SDS011;3552;42.664;23.406;2022-10-16T06:56:23;12.80;;;6.80;;
7021;SDS011;3552;42.664;23.406;2022-10-16T06:58:51;15.47;;;7.23;;
7021;SDS011;3552;42.664;23.406;2022-10-16T07:01:21;18.50;;;7.63;;
7021;SDS011;3552;42.664;23.406;2022-10-16T07:03:49;13.27;;;7.80;;
7021;SDS011;3552;42.664;23.406;2022-10-16T07:06:17;11.90;;;6.77;;
7021;SDS011;3552;42.664;23.406;2022-10-16T07:08:46;9.83;;;5.93;;
7021;SDS011;3552;42.664;23.406;2022-10-16T07:11:14;10.20;;;6.27;;
7021;SDS011;3552;42.664;23.406;2022-10-16T07:13:43;8.07;;;6.07;;
7021;SDS011;3552;42.664;23.406;2022-10-16T07:16:13;8.43;;;6.30;;
7021;SDS011;3552;42.664;23.406;2022-10-16T07:18:43;10.00;;;6.50;;
7021;SDS011;3552;42.664;23.406;2022-10-16T07:21:12;10.77;;;6.30;;
7021;SDS011;3552;42.664;23.406;2022-10-16T07:23:40;8.67;;;6.43;;
7021;SDS011;3552;42.664;23.406;2022-10-16T07:26:07;13.30;;;6.63;;
7021;SDS011;3552;42.664;23.406;2022-10-16T07:28:35;10.20;;;5.63;;
7021;SDS011;3552;42.664;23.406;2022-10-16T07:31:02;11.60;;;5.80;;
7021;SDS011;3552;42.664;23.406;2022-10-16T07:33:30;9.90;;;6.07;;
7021;SDS011;3552;42.664;23.406;2022-10-16T07:35:59;11.77;;;6.40;;
7021;SDS011;3552;42.664;23.406;2022-10-16T07:38:26;10.97;;;5.27;;
7021;SDS011;3552;42.664;23.406;2022-10-16T07:40:57;9.93;;;5.47;;
7021;SDS011;3552;42.664;23.406;2022-10-16T07:43:25;8.13;;;5.27;;
7021;SDS011;3552;42.664;23.406;2022-10-16T07:45:52;11.87;;;5.73;;
7021;SDS011;3552;42.664;23.406;2022-10-16T07:48:20;9.33;;;5.53;;
7021;SDS011;3552;42.664;23.406;2022-10-16T07:50:49;9.23;;;5.93;;
7021;SDS011;3552;42.664;23.406;2022-10-16T07:53:17;10.43;;;5.43;;
7021;SDS011;3552;42.664;23.406;2022-10-16T07:55:44;11.40;;;5.90;;
7021;SDS011;3552;42.664;23.406;2022-10-16T07:58:11;8.33;;;5.07;;
7021;SDS011;3552;42.664;23.406;2022-10-16T08:00:38;10.67;;;5.33;;
7021;SDS011;3552;42.664;23.406;2022-10-16T08:03:05;12.07;;;5.57;;
7021;SDS011;3552;42.664;23.406;2022-10-16T08:05:32;10.37;;;6.10;;
7021;SDS011;3552;42.664;23.406;2022-10-16T08:08:00;9.43;;;5.60;;
7021;SDS011;3552;42.664;23.406;2022-10-16T08:10:29;11.77;;;5.67;;
7021;SDS011;3552;42.664;23.406;2022-10-16T08:12:56;8.07;;;5.70;;
7021;SDS011;3552;42.664;23.406;2022-10-16T08:15:24;9.30;;;5.93;;
7021;SDS011;3552;42.664;23.406;2022-10-16T08:17:57;9.10;;;5.67;;
7021;SDS011;3552;42.664;23.406;2022-10-16T08:20:25;9.00;;;5.67;;
7021;SDS011;3552;42.664;23.406;2022-10-16T08:22:53;9.30;;;5.73;;
7021;SDS011;3552;42.664;23.406;2022-10-16T08:25:21;6.23;;;4.67;;
7021;SDS011;3552;42.664;23.406;2022-10-16T08:27:49;5.50;;;4.70;;
7021;SDS011;3552;42.664;23.406;2022-10-16T08:30:17;9.40;;;5.23;;
7021;SDS011;3552;42.664;23.406;2022-10-16T08:32:45;10.50;;;4.30;;
7021;SDS011;3552;42.664;23.406;2022-10-16T08:35:13;5.73;;;4.67;;
7021;SDS011;3552;42.664;23.406;2022-10-16T08:37:40;10.63;;;5.10;;
7021;SDS011;3552;42.664;23.406;2022-10-16T08:40:11;5.43;;;4.10;;
7021;SDS011;3552;42.664;23.406;2022-10-16T08:42:47;9.20;;;4.37;;
7021;SDS011;3552;42.664;23.406;2022-10-16T08:48:35;6.30;;;4.00;;
7021;SDS011;3552;42.664;23.406;2022-10-16T08:51:11;4.83;;;3.87;;
7021;SDS011;3552;42.664;23.406;2022-10-16T08:53:46;5.17;;;4.00;;
7021;SDS011;3552;42.664;23.406;2022-10-16T08:56:17;10.53;;;4.17;;
7021;SDS011;3552;42.664;23.406;2022-10-16T08:58:45;8.30;;;4.20;;
7021;SDS011;3552;42.664;23.406;2022-10-16T09:01:13;4.70;;;3.70;;
7021;SDS011;3552;42.664;23.406;2022-10-16T09:04:00;6.10;;;3.40;;
7021;SDS011;3552;42.664;23.406;2022-10-16T09:06:44;7.67;;;3.43;;
7021;SDS011;3552;42.664;23.406;2022-10-16T09:09:20;4.70;;;3.43;;
7021;SDS011;3552;42.664;23.406;2022-10-16T09:12:09;4.57;;;3.70;;
7021;SDS011;3552;42.664;23.406;2022-10-16T09:14:54;5.43;;;3.60;;
7021;SDS011;3552;42.664;23.406;2022-10-16T09:17:32;5.80;;;3.40;;
7021;SDS011;3552;42.664;23.406;2022-10-16T09:20:26;5.93;;;3.70;;
7021;SDS011;3552;42.664;23.406;2022-10-16T09:25:51;5.27;;;3.40;;
7021;SDS011;3552;42.664;23.406;2022-10-16T09:28:20;6.00;;;3.57;;
7021;SDS011;3552;42.664;23.406;2022-10-16T09:30:47;4.27;;;3.10;;
7021;SDS011;3552;42.664;23.406;2022-10-16T09:33:16;4.93;;;3.20;;
7021;SDS011;3552;42.664;23.406;2022-10-16T09:35:46;5.63;;;3.43;;
7021;SDS011;3552;42.664;23.406;2022-10-16T09:38:23;4.63;;;3.13;;
7021;SDS011;3552;42.664;23.406;2022-10-16T09:40:53;6.47;;;3.60;;
7021;SDS011;3552;42.664;23.406;2022-10-16T09:43:22;5.27;;;3.67;;
7021;SDS011;3552;42.664;23.406;2022-10-16T09:45:53;4.00;;;3.40;;
7021;SDS011;3552;42.664;23.406;2022-10-16T09:48:21;6.43;;;3.33;;
7021;SDS011;3552;42.664;23.406;2022-10-16T09:50:57;6.00;;;3.43;;
7021;SDS011;3552;42.664;23.406;2022-10-16T09:53:26;6.80;;;3.73;;
7021;SDS011;3552;42.664;23.406;2022-10-16T09:56:09;5.33;;;3.77;;
7021;SDS011;3552;42.664;23.406;2022-10-16T09:58:42;4.57;;;3.67;;
7021;SDS011;3552;42.664;23.406;2022-10-16T10:01:16;4.50;;;3.60;;
7021;SDS011;3552;42.664;23.406;2022-10-16T10:03:43;5.73;;;3.30;;
7021;SDS011;3552;42.664;23.406;2022-10-16T10:06:17;6.77;;;3.17;;
7021;SDS011;3552;42.664;23.406;2022-10-16T10:08:56;6.30;;;3.60;;
7021;SDS011;3552;42.664;23.406;2022-10-16T10:11:41;7.97;;;3.50;;
7021;SDS011;3552;42.664;23.406;2022-10-16T10:14:15;7.73;;;3.60;;
7021;SDS011;3552;42.664;23.406;2022-10-16T10:16:45;3.80;;;2.97;;
7021;SDS011;3552;42.664;23.406;2022-10-16T10:19:16;4.23;;;3.70;;
7021;SDS011;3552;42.664;23.406;2022-10-16T10:21:46;4.67;;;2.97;;
7021;SDS011;3552;42.664;23.406;2022-10-16T10:24:14;4.17;;;3.00;;
7021;SDS011;3552;42.664;23.406;2022-10-16T10:26:45;5.27;;;3.57;;
7021;SDS011;3552;42.664;23.406;2022-10-16T10:29:20;4.70;;;2.50;;
7021;SDS011;3552;42.664;23.406;2022-10-16T10:32:00;5.57;;;2.87;;
7021;SDS011;3552;42.664;23.406;2022-10-16T10:34:40;5.17;;;2.83;;
7021;SDS011;3552;42.664;23.406;2022-10-16T10:37:22;3.30;;;2.70;;
7021;SDS011;3552;42.664;23.406;2022-10-16T10:40:02;4.33;;;3.07;;
7021;SDS011;3552;42.664;23.406;2022-10-16T10:42:39;3.67;;;2.90;;
7021;SDS011;3552;42.664;23.406;2022-10-16T10:45:17;4.33;;;2.40;;
7021;SDS011;3552;42.664;23.406;2022-10-16T10:47:55;2.70;;;2.27;;
7021;SDS011;3552;42.664;23.406;2022-10-16T10:50:34;3.70;;;2.60;;
7021;SDS011;3552;42.664;23.406;2022-10-16T10:53:14;5.00;;;2.70;;
7021;SDS011;3552;42.664;23.406;2022-10-16T10:55:49;4.13;;;2.33;;
7021;SDS011;3552;42.664;23.406;2022-10-16T10:58:32;3.00;;;2.43;;
7021;SDS011;3552;42.664;23.406;2022-10-16T11:01:11;3.90;;;2.30;;
7021;SDS011;3552;42.664;23.406;2022-10-16T11:03:47;4.00;;;2.70;;
7021;SDS011;3552;42.664;23.406;2022-10-16T11:06:46;6.27;;;2.40;;
7021;SDS011;3552;42.664;23.406;2022-10-16T11:09:21;3.87;;;3.47;;
7021;SDS011;3552;42.664;23.406;2022-10-16T11:11:52;6.10;;;3.10;;
7021;SDS011;3552;42.664;23.406;2022-10-16T11:14:25;4.13;;;2.97;;
7021;SDS011;3552;42.664;23.406;2022-10-16T11:16:56;4.97;;;2.43;;
7021;SDS011;3552;42.664;23.406;2022-10-16T11:19:33;6.10;;;3.07;;
7021;SDS011;3552;42.664;23.406;2022-10-16T11:22:07;2.97;;;2.63;;
7021;SDS011;3552;42.664;23.406;2022-10-16T11:24:44;3.60;;;2.77;;
7021;SDS011;3552;42.664;23.406;2022-10-16T11:27:15;3.53;;;2.83;;
7021;SDS011;3552;42.664;23.406;2022-10-16T11:29:47;4.90;;;2.90;;
7021;SDS011;3552;42.664;23.406;2022-10-16T11:32:22;5.33;;;2.80;;
7021;SDS011;3552;42.664;23.406;2022-10-16T11:34:53;4.97;;;2.93;;
7021;SDS011;3552;42.664;23.406;2022-10-16T11:37:34;7.20;;;2.73;;
7021;SDS011;3552;42.664;23.406;2022-10-16T11:40:14;3.47;;;2.73;;
7021;SDS011;3552;42.664;23.406;2022-10-16T11:42:49;3.23;;;2.70;;
7021;SDS011;3552;42.664;23.406;2022-10-16T11:45:23;3.37;;;2.60;;
7021;SDS011;3552;42.664;23.406;2022-10-16T11:47:58;6.43;;;2.43;;
7021;SDS011;3552;42.664;23.406;2022-10-16T11:50:34;3.90;;;2.70;;
7021;SDS011;3552;42.664;23.406;2022-10-16T11:53:09;3.20;;;2.67;;
7021;SDS011;3552;42.664;23.406;2022-10-16T11:55:45;4.10;;;2.70;;
7021;SDS011;3552;42.664;23.406;2022-10-16T11:58:15;5.43;;;2.80;;
7021;SDS011;3552;42.664;23.406;2022-10-16T12:00:54;2.90;;;2.43;;
7021;SDS011;3552;42.664;23.406;2022-10-16T12:03:29;4.93;;;3.00;;
7021;SDS011;3552;42.664;23.406;2022-10-16T12:06:05;3.17;;;2.73;;
7021;SDS011;3552;42.664;23.406;2022-10-16T12:08:45;3.77;;;2.77;;
7021;SDS011;3552;42.664;23.406;2022-10-16T12:11:33;3.80;;;2.20;;
7021;SDS011;3552;42.664;23.406;2022-10-16T12:19:57;3.70;;;3.00;;
7021;SDS011;3552;42.664;23.406;2022-10-16T12:22:27;4.87;;;2.90;;
7021;SDS011;3552;42.664;23.406;2022-10-16T12:24:56;3.37;;;2.90;;
7021;SDS011;3552;42.664;23.406;2022-10-16T12:27:27;3.63;;;2.70;;
7021;SDS011;3552;42.664;23.406;2022-10-16T12:29:58;5.27;;;2.90;;
7021;SDS011;3552;42.664;23.406;2022-10-16T12:32:30;6.80;;;2.87;;
7021;SDS011;3552;42.664;23.406;2022-10-16T12:35:16;8.53;;;2.80;;
7021;SDS011;3552;42.664;23.406;2022-10-16T12:37:46;4.83;;;2.90;;
7021;SDS011;3552;42.664;23.406;2022-10-16T12:40:22;5.40;;;2.77;;
7021;SDS011;3552;42.664;23.406;2022-10-16T12:42:56;7.37;;;2.77;;
7021;SDS011;3552;42.664;23.406;2022-10-16T12:45:28;6.43;;;3.27;;
7021;SDS011;3552;42.664;23.406;2022-10-16T12:47:56;4.23;;;2.70;;
7021;SDS011;3552;42.664;23.406;2022-10-16T12:50:26;8.53;;;3.30;;
7021;SDS011;3552;42.664;23.406;2022-10-16T12:52:57;4.93;;;2.70;;
7021;SDS011;3552;42.664;23.406;2022-10-16T12:55:24;5.77;;;3.03;;
7021;SDS011;3552;42.664;23.406;2022-10-16T12:58:03;3.23;;;2.63;;
7021;SDS011;3552;42.664;23.406;2022-10-16T13:00:36;6.17;;;2.53;;
7021;SDS011;3552;42.664;23.406;2022-10-16T13:06:06;2.60;;;2.40;;
7021;SDS011;3552;42.664;23.406;2022-10-16T13:08:46;2.80;;;2.50;;
7021;SDS011;3552;42.664;23.406;2022-10-16T13:11:31;3.10;;;2.70;;
7021;SDS011;3552;42.664;23.406;2022-10-16T13:14:14;3.97;;;2.70;;
7021;SDS011;3552;42.664;23.406;2022-10-16T13:16:57;2.67;;;2.47;;
7021;SDS011;3552;42.664;23.406;2022-10-16T13:19:35;4.63;;;2.70;;
7021;SDS011;3552;42.664;23.406;2022-10-16T13:22:11;4.97;;;2.70;;
7021;SDS011;3552;42.664;23.406;2022-10-16T13:24:49;4.53;;;2.60;;
7021;SDS011;3552;42.664;23.406;2022-10-16T13:27:31;4.13;;;2.80;;
7021;SDS011;3552;42.664;23.406;2022-10-16T13:30:13;5.07;;;3.00;;
7021;SDS011;3552;42.664;23.406;2022-10-16T13:32:44;5.03;;;2.40;;
7021;SDS011;3552;42.664;23.406;2022-10-16T13:35:29;6.77;;;2.83;;
7021;SDS011;3552;42.664;23.406;2022-10-16T13:40:52;4.67;;;2.53;;
7021;SDS011;3552;42.664;23.406;2022-10-16T13:43:24;6.67;;;2.63;;
7021;SDS011;3552;42.664;23.406;2022-10-16T13:45:57;2.77;;;2.50;;
7021;SDS011;3552;42.664;23.406;2022-10-16T13:48:28;5.23;;;2.70;;
7021;SDS011;3552;42.664;23.406;2022-10-16T13:51:05;4.83;;;2.87;;
7021;SDS011;3552;42.664;23.406;2022-10-16T13:53:37;5.00;;;2.47;;
7021;SDS011;3552;42.664;23.406;2022-10-16T13:56:09;4.83;;;2.40;;
7021;SDS011;3552;42.664;23.406;2022-10-16T13:58:39;5.20;;;2.90;;
7021;SDS011;3552;42.664;23.406;2022-10-16T14:01:15;4.73;;;2.60;;
7021;SDS011;3552;42.664;23.406;2022-10-16T14:03:44;5.17;;;2.80;;
7021;SDS011;3552;42.664;23.406;2022-10-16T14:06:14;3.90;;;2.40;;
7021;SDS011;3552;42.664;23.406;2022-10-16T14:08:49;6.43;;;2.60;;
7021;SDS011;3552;42.664;23.406;2022-10-16T14:11:22;10.20;;;3.00;;
7021;SDS011;3552;42.664;23.406;2022-10-16T14:13:50;5.53;;;2.50;;
7021;SDS011;3552;42.664;23.406;2022-10-16T14:16:21;4.73;;;2.77;;
7021;SDS011;3552;42.664;23.406;2022-10-16T14:18:51;3.30;;;2.80;;
7021;SDS011;3552;42.664;23.406;2022-10-16T14:21:24;6.93;;;2.50;;
7021;SDS011;3552;42.664;23.406;2022-10-16T14:23:53;6.40;;;2.70;;
7021;SDS011;3552;42.664;23.406;2022-10-16T14:26:22;4.93;;;2.73;;
7021;SDS011;3552;42.664;23.406;2022-10-16T14:29:04;3.57;;;2.10;;
7021;SDS011;3552;42.664;23.406;2022-10-16T14:31:39;7.07;;;2.73;;
7021;SDS011;3552;42.664;23.406;2022-10-16T14:36:53;4.70;;;2.70;;
7021;SDS011;3552;42.664;23.406;2022-10-16T14:39:21;5.70;;;2.90;;
7021;SDS011;3552;42.664;23.406;2022-10-16T14:41:49;3.47;;;2.47;;
7021;SDS011;3552;42.664;23.406;2022-10-16T14:44:19;4.53;;;2.60;;
7021;SDS011;3552;42.664;23.406;2022-10-16T14:47:05;4.43;;;2.57;;
7021;SDS011;3552;42.664;23.406;2022-10-16T14:49:35;6.57;;;2.60;;
7021;SDS011;3552;42.664;23.406;2022-10-16T14:52:04;6.43;;;2.90;;
7021;SDS011;3552;42.664;23.406;2022-10-16T14:54:34;3.43;;;2.70;;
7021;SDS011;3552;42.664;23.406;2022-10-16T14:57:03;4.10;;;2.27;;
7021;SDS011;3552;42.664;23.406;2022-10-16T14:59:32;6.50;;;2.63;;
7021;SDS011;3552;42.664;23.406;2022-10-16T15:02:09;4.90;;;2.70;;
7021;SDS011;3552;42.664;23.406;2022-10-16T15:04:47;4.50;;;2.57;;
7021;SDS011;3552;42.664;23.406;2022-10-16T15:07:15;4.83;;;2.73;;
7021;SDS011;3552;42.664;23.406;2022-10-16T15:09:42;5.03;;;2.67;;
7021;SDS011;3552;42.664;23.406;2022-10-16T15:12:10;4.33;;;2.50;;
7021;SDS011;3552;42.664;23.406;2022-10-16T15:14:41;4.20;;;2.33;;
7021;SDS011;3552;42.664;23.406;2022-10-16T15:17:11;5.10;;;2.87;;
7021;SDS011;3552;42.664;23.406;2022-10-16T15:19:40;7.80;;;2.87;;
7021;SDS011;3552;42.664;23.406;2022-10-16T15:22:08;7.73;;;3.10;;
7021;SDS011;3552;42.664;23.406;2022-10-16T15:24:35;5.00;;;3.10;;
7021;SDS011;3552;42.664;23.406;2022-10-16T15:27:03;7.90;;;3.10;;
7021;SDS011;3552;42.664;23.406;2022-10-16T15:29:30;8.07;;;3.00;;
7021;SDS011;3552;42.664;23.406;2022-10-16T15:31:57;6.57;;;2.77;;
7021;SDS011;3552;42.664;23.406;2022-10-16T15:34:25;9.03;;;2.80;;
7021;SDS011;3552;42.664;23.406;2022-10-16T15:36:53;5.53;;;3.17;;
7021;SDS011;3552;42.664;23.406;2022-10-16T15:39:21;13.03;;;3.30;;
7021;SDS011;3552;42.664;23.406;2022-10-16T15:41:49;13.63;;;3.47;;